Time,TemperatureF,DewpointF,PressureIn,WindDirection,WindDirectionDegrees,WindSpeedMPH,WindSpeedGustMPH,Humidity,HourlyPrecipIn,Conditions,Clouds,dailyrainin,SoftwareType,DateUTC
2013-12-30 00:00:00,48.3,30.0,30.12,WNW,302,0.0,0.0,49,0.00,,,0.01,Wunderground v.1.15,2013-12-30 08:00:00,
2013-12-30 00:10:00,48.0,30.2,30.12,WNW,302,0.0,0.0,50,0.00,,,0.01,Wunderground v.1.15,2013-12-30 08:10:00,
2013-12-30 00:20:00,47.5,30.3,30.12,WNW,302,0.0,0.0,51,0.00,,,0.00,Wunderground v.1.15,2013-12-30 08:20:00,
2013-12-30 00:30:00,47.2,30.5,30.12,WNW,302,0.0,0.0,52,0.00,,,0.00,Wunderground v.1.15,2013-12-30 08:30:00,
2013-12-30 00:40:00,47.0,30.3,30.12,WNW,302,0.0,0.0,52,0.00,,,0.00,Wunderground v.1.15,2013-12-30 08:40:00,
2013-12-30 00:50:00,46.8,30.6,30.12,WNW,302,0.0,0.0,53,0.00,,,0.00,Wunderground v.1.15,2013-12-30 08:50:00,
2013-12-30 01:00:00,46.7,30.5,30.12,WNW,302,0.0,0.0,53,0.00,,,0.00,Wunderground v.1.15,2013-12-30 09:00:00,
2013-12-30 01:10:00,46.5,30.7,30.12,WNW,302,0.0,0.0,54,0.00,,,0.00,Wunderground v.1.15,2013-12-30 09:10:00,
2013-12-30 01:20:00,46.5,30.7,30.12,WNW,302,0.0,0.0,54,0.00,,,0.00,Wunderground v.1.15,2013-12-30 09:20:00,
2013-12-30 01:30:00,46.4,30.6,30.13,WNW,302,0.0,0.0,54,0.00,,,0.00,Wunderground v.1.15,2013-12-30 09:30:00,
2013-12-30 01:40:00,46.2,30.5,30.14,WNW,302,0.0,0.0,54,0.00,,,0.00,Wunderground v.1.15,2013-12-30 09:40:00,
2013-12-30 01:50:00,46.1,30.4,30.14,WNW,302,0.0,0.0,54,0.00,,,0.00,Wunderground v.1.15,2013-12-30 09:50:00,
2013-12-30 02:00:00,45.8,30.1,30.14,WNW,302,0.0,0.0,54,0.00,,,0.00,Wunderground v.1.15,2013-12-30 10:00:00,
2013-12-30 02:10:00,45.6,29.0,30.14,WNW,302,0.0,0.0,52,0.00,,,0.00,Wunderground v.1.15,2013-12-30 10:10:00,
2013-12-30 02:20:00,45.5,29.3,30.14,WNW,302,0.0,0.0,53,0.00,,,0.00,Wunderground v.1.15,2013-12-30 10:20:00,
2013-12-30 02:30:00,45.4,29.3,30.15,WNW,302,0.0,0.0,53,0.00,,,0.00,Wunderground v.1.15,2013-12-30 10:30:00,
2013-12-30 02:40:00,45.0,28.9,30.15,WNW,302,0.0,0.0,53,0.00,,,0.00,Wunderground v.1.15,2013-12-30 10:40:00,
2013-12-30 02:50:00,44.9,29.2,30.15,WNW,302,0.0,0.0,54,0.00,,,0.00,Wunderground v.1.15,2013-12-30 10:50:00,
2013-12-30 03:00:00,44.6,29.0,30.15,WNW,302,0.0,0.0,54,0.00,,,0.00,Wunderground v.1.15,2013-12-30 11:00:00,
2013-12-30 03:10:00,44.4,29.2,30.15,WNW,302,0.0,0.0,55,0.00,,,0.00,Wunderground v.1.15,2013-12-30 11:10:00,
2013-12-30 03:20:00,44.3,29.1,30.16,WNW,302,0.0,1.0,55,0.00,,,0.00,Wunderground v.1.15,2013-12-30 11:20:00,
2013-12-30 03:30:00,44.1,29.4,30.16,WNW,302,0.0,0.0,56,0.00,,,0.00,Wunderground v.1.15,2013-12-30 11:30:00,
2013-12-30 03:40:00,44.0,29.7,30.16,WNW,302,0.0,0.0,57,0.00,,,0.00,Wunderground v.1.15,2013-12-30 11:40:00,
2013-12-30 03:50:00,43.9,29.2,30.16,WNW,302,0.0,0.0,56,0.00,,,0.00,Wunderground v.1.15,2013-12-30 11:50:00,
2013-12-30 04:00:00,43.8,28.7,30.16,WNW,302,0.0,0.0,55,0.00,,,0.00,Wunderground v.1.15,2013-12-30 12:00:00,
2013-12-30 04:10:00,43.9,28.8,30.16,WNW,302,0.0,0.0,55,0.00,,,0.00,Wunderground v.1.15,2013-12-30 12:10:00,
2013-12-30 04:20:00,43.9,29.2,30.16,WNW,302,0.0,0.0,56,0.00,,,0.00,Wunderground v.1.15,2013-12-30 12:20:00,
2013-12-30 04:30:00,43.8,29.5,30.16,WNW,302,0.0,0.0,57,0.00,,,0.00,Wunderground v.1.15,2013-12-30 12:30:00,
2013-12-30 04:40:00,43.6,29.4,30.16,WNW,302,0.0,0.0,57,0.00,,,0.00,Wunderground v.1.15,2013-12-30 12:40:00,
2013-12-30 04:50:00,43.3,29.5,30.17,WNW,302,0.0,0.0,58,0.00,,,0.00,Wunderground v.1.15,2013-12-30 12:50:00,
2013-12-30 05:00:00,43.1,29.3,30.17,WNW,302,0.0,0.0,58,0.00,,,0.00,Wunderground v.1.15,2013-12-30 13:00:00,
2013-12-30 05:10:00,43.1,29.3,30.17,WNW,302,0.0,0.0,58,0.00,,,0.00,Wunderground v.1.15,2013-12-30 13:10:00,
2013-12-30 05:20:00,42.9,29.5,30.17,WNW,302,0.0,0.0,59,0.00,,,0.00,Wunderground v.1.15,2013-12-30 13:20:00,
2013-12-30 05:30:00,42.8,29.9,30.17,WNW,302,0.0,0.0,60,0.00,,,0.00,Wunderground v.1.15,2013-12-30 13:30:00,
2013-12-30 05:40:00,42.7,30.2,30.18,WNW,302,0.0,0.0,61,0.00,,,0.00,Wunderground v.1.15,2013-12-30 13:40:00,
2013-12-30 05:50:00,42.6,30.5,30.18,WNW,302,0.0,0.0,62,0.00,,,0.00,Wunderground v.1.15,2013-12-30 13:50:00,
2013-12-30 06:00:00,42.5,30.4,30.18,WNW,302,0.0,0.0,62,0.00,,,0.00,Wunderground v.1.15,2013-12-30 14:00:00,
2013-12-30 06:10:00,42.5,31.2,30.19,WNW,302,0.0,0.0,64,0.00,,,0.00,Wunderground v.1.15,2013-12-30 14:10:00,
2013-12-30 06:20:00,42.4,31.1,30.19,WNW,302,0.0,0.0,64,0.00,,,0.00,Wunderground v.1.15,2013-12-30 14:20:00,
2013-12-30 06:30:00,42.2,31.3,30.19,WNW,302,0.0,0.0,65,0.00,,,0.00,Wunderground v.1.15,2013-12-30 14:30:00,
2013-12-30 06:40:00,42.0,31.1,30.20,WNW,302,0.0,0.0,65,0.00,,,0.00,Wunderground v.1.15,2013-12-30 14:40:00,
2013-12-30 06:50:00,41.9,31.4,30.20,WNW,302,0.0,0.0,66,0.00,,,0.00,Wunderground v.1.15,2013-12-30 14:50:00,
2013-12-30 07:00:00,41.8,31.6,30.21,WNW,302,0.0,0.0,67,0.00,,,0.00,Wunderground v.1.15,2013-12-30 15:00:00,
2013-12-30 07:10:00,41.6,31.8,30.21,WNW,302,0.0,0.0,68,0.00,,,0.00,Wunderground v.1.15,2013-12-30 15:10:00,
2013-12-30 07:20:00,41.7,32.3,30.21,WNW,302,0.0,0.0,69,0.00,,,0.00,Wunderground v.1.15,2013-12-30 15:20:00,
2013-12-30 07:30:00,42.0,33.3,30.21,WNW,302,0.0,0.0,71,0.00,,,0.00,Wunderground v.1.15,2013-12-30 15:30:00,
2013-12-30 07:40:00,43.3,34.9,30.21,WNW,302,0.0,0.0,72,0.00,,,0.00,Wunderground v.1.15,2013-12-30 15:40:00,
2013-12-30 07:50:00,44.5,36.0,30.22,WNW,302,0.0,0.0,72,0.00,,,0.00,Wunderground v.1.15,2013-12-30 15:50:00,
2013-12-30 08:00:00,46.1,36.9,30.22,WNW,302,0.0,0.0,70,0.00,,,0.00,Wunderground v.1.15,2013-12-30 16:00:00,
2013-12-30 08:10:00,47.6,36.8,30.22,WNW,302,0.0,0.0,66,0.00,,,0.00,Wunderground v.1.15,2013-12-30 16:10:00,
2013-12-30 08:20:00,49.3,35.6,30.22,WNW,302,0.0,0.0,59,0.00,,,0.00,Wunderground v.1.15,2013-12-30 16:20:00,
2013-12-30 08:30:00,50.9,31.4,30.23,WNW,302,0.0,0.0,47,0.00,,,0.00,Wunderground v.1.15,2013-12-30 16:30:00,
2013-12-30 08:40:00,52.1,30.8,30.23,WNW,302,0.0,0.0,44,0.00,,,0.00,Wunderground v.1.15,2013-12-30 16:40:00,
2013-12-30 08:50:00,53.1,30.6,30.23,WNW,302,0.0,0.0,42,0.00,,,0.00,Wunderground v.1.15,2013-12-30 16:50:00,
2013-12-30 09:00:00,54.1,29.7,30.23,WNW,302,0.0,0.0,39,0.00,,,0.00,Wunderground v.1.15,2013-12-30 17:00:00,
2013-12-30 09:10:00,55.2,30.0,30.24,WNW,302,0.0,0.0,38,0.00,,,0.00,Wunderground v.1.15,2013-12-30 17:10:00,
2013-12-30 09:20:00,56.6,29.2,30.24,WNW,302,0.0,0.0,35,0.00,,,0.00,Wunderground v.1.15,2013-12-30 17:20:00,
2013-12-30 09:30:00,58.5,29.5,30.24,WNW,302,0.0,0.0,33,0.00,,,0.00,Wunderground v.1.15,2013-12-30 17:30:00,
2013-12-30 09:40:00,59.5,28.8,30.24,WNW,302,0.0,0.0,31,0.00,,,0.00,Wunderground v.1.15,2013-12-30 17:40:00,
2013-12-30 09:50:00,60.5,30.5,30.24,WNW,302,0.0,0.0,32,0.00,,,0.00,Wunderground v.1.15,2013-12-30 17:50:00,
2013-12-30 10:00:00,62.2,31.2,30.24,WNW,302,0.0,0.0,31,0.00,,,0.00,Wunderground v.1.15,2013-12-30 18:00:00,
2013-12-30 10:10:00,63.2,34.3,30.24,WNW,302,0.0,0.0,34,0.00,,,0.00,Wunderground v.1.15,2013-12-30 18:10:00,
2013-12-30 10:20:00,63.8,37.7,30.24,WNW,302,0.0,0.0,38,0.00,,,0.00,Wunderground v.1.15,2013-12-30 18:20:00,
2013-12-30 10:30:00,64.0,38.5,30.23,WNW,302,0.0,0.0,39,0.00,,,0.00,Wunderground v.1.15,2013-12-30 18:30:00,
2013-12-30 10:40:00,64.5,39.0,30.23,WNW,302,0.0,0.0,39,0.00,,,0.00,Wunderground v.1.15,2013-12-30 18:40:00,
2013-12-30 10:50:00,66.1,37.6,30.23,WNW,302,0.0,0.0,35,0.00,,,0.00,Wunderground v.1.15,2013-12-30 18:50:00,
2013-12-30 11:00:00,67.1,37.0,30.22,WNW,302,0.0,0.0,33,0.00,,,0.00,Wunderground v.1.15,2013-12-30 19:00:00,
2013-12-30 11:10:00,67.7,36.8,30.22,WNW,302,0.0,0.0,32,0.00,,,0.00,Wunderground v.1.15,2013-12-30 19:10:00,
2013-12-30 11:20:00,70.5,37.6,30.22,WNW,302,0.0,0.0,30,0.00,,,0.00,Wunderground v.1.15,2013-12-30 19:20:00,
2013-12-30 11:30:00,71.1,37.2,30.21,WNW,302,0.0,0.0,29,0.00,,,0.00,Wunderground v.1.15,2013-12-30 19:30:00,
2013-12-30 11:40:00,71.3,37.4,30.20,WNW,302,0.0,0.0,29,0.00,,,0.00,Wunderground v.1.15,2013-12-30 19:40:00,
2013-12-30 11:50:00,71.3,36.5,30.20,WNW,302,0.0,0.0,28,0.00,,,0.00,Wunderground v.1.15,2013-12-30 19:50:00,
2013-12-30 12:00:00,72.1,36.3,30.19,WNW,302,0.0,0.0,27,0.00,,,0.00,Wunderground v.1.15,2013-12-30 20:00:00,
2013-12-30 12:10:00,72.4,37.4,30.18,WNW,302,0.0,0.0,28,0.00,,,0.00,Wunderground v.1.15,2013-12-30 20:10:00,
2013-12-30 12:20:00,72.7,36.8,30.18,WNW,302,1.0,1.0,27,0.00,,,0.00,Wunderground v.1.15,2013-12-30 20:20:00,
2013-12-30 12:30:00,74.0,36.9,30.17,WNW,301,0.0,0.0,26,0.00,,,0.00,Wunderground v.1.15,2013-12-30 20:30:00,
2013-12-30 12:40:00,74.8,36.6,30.17,WNW,301,1.0,1.0,25,0.00,,,0.00,Wunderground v.1.15,2013-12-30 20:40:00,
2013-12-30 12:50:00,75.2,34.8,30.16,WNW,287,1.0,1.0,23,0.00,,,0.00,Wunderground v.1.15,2013-12-30 20:50:00,
2013-12-30 13:00:00,75.8,34.2,30.16,WNW,287,1.0,1.0,22,0.00,,,0.00,Wunderground v.1.15,2013-12-30 21:00:00,
2013-12-30 13:10:00,76.1,34.5,30.16,WNW,286,1.0,1.0,22,0.00,,,0.00,Wunderground v.1.15,2013-12-30 21:10:00,
2013-12-30 13:20:00,75.7,35.3,30.15,WNW,285,0.0,0.0,23,0.00,,,0.00,Wunderground v.1.15,2013-12-30 21:20:00,
2013-12-30 13:30:00,76.2,34.6,30.15,WNW,284,0.0,0.0,22,0.00,,,0.00,Wunderground v.1.15,2013-12-30 21:30:00,
2013-12-30 13:40:00,76.7,33.8,30.15,WNW,284,0.0,3.0,21,0.00,,,0.00,Wunderground v.1.15,2013-12-30 21:40:00,
2013-12-30 13:50:00,76.8,33.9,30.15,WNW,283,1.0,1.0,21,0.00,,,0.00,Wunderground v.1.15,2013-12-30 21:50:00,
2013-12-30 14:00:00,76.6,31.2,30.15,West,281,0.0,0.0,19,0.00,,,0.00,Wunderground v.1.15,2013-12-30 22:00:00,
2013-12-30 14:10:00,77.5,32.0,30.15,West,281,0.0,0.0,19,0.00,,,0.00,Wunderground v.1.15,2013-12-30 22:10:00,
2013-12-30 14:20:00,75.6,40.2,30.15,West,281,1.0,1.0,28,0.00,,,0.00,Wunderground v.1.15,2013-12-30 22:20:00,
2013-12-30 14:30:00,72.6,37.6,30.15,West,281,2.0,4.0,28,0.00,,,0.00,Wunderground v.1.15,2013-12-30 22:30:00,
2013-12-30 14:40:00,72.2,37.3,30.15,West,281,3.0,3.0,28,0.00,,,0.00,Wunderground v.1.15,2013-12-30 22:40:00,
2013-12-30 14:50:00,72.6,36.7,30.15,WNW,283,1.0,4.0,27,0.00,,,0.00,Wunderground v.1.15,2013-12-30 22:50:00,
2013-12-30 15:00:00,72.5,35.6,30.15,WNW,288,2.0,2.0,26,0.00,,,0.00,Wunderground v.1.15,2013-12-30 23:00:00,
2013-12-30 15:10:00,72.3,35.5,30.15,WNW,291,3.0,3.0,26,0.00,,,0.00,Wunderground v.1.15,2013-12-30 23:10:00,
2013-12-30 15:20:00,71.8,32.0,30.15,WNW,300,3.0,4.0,23,0.00,,,0.00,Wunderground v.1.15,2013-12-30 23:20:00,
2013-12-30 15:30:00,71.4,30.5,30.15,WNW,302,3.0,4.0,22,0.00,,,0.00,Wunderground v.1.15,2013-12-30 23:30:00,
2013-12-30 15:40:00,71.2,30.4,30.15,WNW,300,3.0,3.0,22,0.00,,,0.00,Wunderground v.1.15,2013-12-30 23:40:00,
2013-12-30 15:50:00,70.8,28.9,30.14,WNW,299,2.0,2.0,21,0.00,,,0.00,Wunderground v.1.15,2013-12-30 23:50:00,
2013-12-30 16:00:00,70.3,28.5,30.14,WNW,301,4.0,4.0,21,0.00,,,0.00,Wunderground v.1.15,2013-12-31 00:00:00,
2013-12-30 16:10:00,69.6,30.1,30.14,NW,309,3.0,3.0,23,0.00,,,0.00,Wunderground v.1.15,2013-12-31 00:10:00,
2013-12-30 16:20:00,68.7,31.4,30.14,NW,309,4.0,4.0,25,0.00,,,0.00,Wunderground v.1.15,2013-12-31 00:20:00,
2013-12-30 16:30:00,67.8,32.6,30.15,NW,311,4.0,4.0,27,0.00,,,0.00,Wunderground v.1.15,2013-12-31 00:30:00,
2013-12-30 16:40:00,66.9,33.6,30.15,NW,310,4.0,4.0,29,0.00,,,0.00,Wunderground v.1.15,2013-12-31 00:40:00,
2013-12-30 16:50:00,66.0,35.3,30.15,NW,309,2.0,5.0,32,0.00,,,0.00,Wunderground v.1.15,2013-12-31 00:50:00,
2013-12-30 17:00:00,64.8,36.5,30.15,NW,304,2.0,4.0,35,0.00,,,0.00,Wunderground v.1.15,2013-12-31 01:00:00,
2013-12-30 17:10:00,63.9,41.5,30.15,NW,306,3.0,3.0,44,0.00,,,0.00,Wunderground v.1.15,2013-12-31 01:10:00,
2013-12-30 17:20:00,62.8,44.4,30.15,NW,306,3.0,4.0,51,0.00,,,0.00,Wunderground v.1.15,2013-12-31 01:20:00,
2013-12-30 17:30:00,61.9,45.1,30.16,NW,306,2.0,2.0,54,0.00,,,0.00,Wunderground v.1.15,2013-12-31 01:30:00,
2013-12-30 17:40:00,61.2,45.4,30.16,NW,306,2.0,2.0,56,0.00,,,0.00,Wunderground v.1.15,2013-12-31 01:40:00,
2013-12-30 17:50:00,60.6,46.2,30.16,NW,306,2.0,2.0,59,0.00,,,0.00,Wunderground v.1.15,2013-12-31 01:50:00,
2013-12-30 18:00:00,60.0,46.5,30.16,NW,306,2.0,2.0,61,0.00,,,0.00,Wunderground v.1.15,2013-12-31 02:00:00,
2013-12-30 18:10:00,59.5,46.0,30.17,NW,306,2.0,2.0,61,0.00,,,0.00,Wunderground v.1.15,2013-12-31 02:10:00,
2013-12-30 18:20:00,59.0,45.6,30.17,NW,306,1.0,5.0,61,0.00,,,0.00,Wunderground v.1.15,2013-12-31 02:20:00,
2013-12-30 18:30:00,58.6,43.4,30.17,NW,306,2.0,2.0,57,0.00,,,0.00,Wunderground v.1.15,2013-12-31 02:30:00,
2013-12-30 18:40:00,58.3,41.7,30.17,NW,306,0.0,0.0,54,0.00,,,0.00,Wunderground v.1.15,2013-12-31 02:40:00,
2013-12-30 18:50:00,57.9,39.9,30.17,NW,306,0.0,0.0,51,0.00,,,0.00,Wunderground v.1.15,2013-12-31 02:50:00,
2013-12-30 19:00:00,57.5,38.5,30.18,NW,306,0.0,0.0,49,0.00,,,0.00,Wunderground v.1.15,2013-12-31 03:00:00,
2013-12-30 19:10:00,57.2,38.7,30.17,NW,306,0.0,0.0,50,0.00,,,0.00,Wunderground v.1.15,2013-12-31 03:10:00,
2013-12-30 19:20:00,56.9,38.9,30.18,NW,306,0.0,0.0,51,0.00,,,0.00,Wunderground v.1.15,2013-12-31 03:20:00,
2013-12-30 19:30:00,56.5,38.6,30.18,NW,306,0.0,0.0,51,0.00,,,0.00,Wunderground v.1.15,2013-12-31 03:30:00,
2013-12-30 19:40:00,56.2,39.3,30.19,NW,306,0.0,0.0,53,0.00,,,0.00,Wunderground v.1.15,2013-12-31 03:40:00,
2013-12-30 19:50:00,56.0,40.1,30.19,NW,306,1.0,1.0,55,0.00,,,0.00,Wunderground v.1.15,2013-12-31 03:50:00,
2013-12-30 20:00:00,56.2,40.2,30.19,NW,306,2.0,2.0,55,0.00,,,0.00,Wunderground v.1.15,2013-12-31 04:00:00,
2013-12-30 20:10:00,56.1,40.6,30.19,NW,306,1.0,1.0,56,0.00,,,0.00,Wunderground v.1.15,2013-12-31 04:10:00,
2013-12-30 20:20:00,56.0,40.1,30.19,NW,306,0.0,0.0,55,0.00,,,0.00,Wunderground v.1.15,2013-12-31 04:20:00,
2013-12-30 20:30:00,55.7,39.3,30.19,NW,306,0.0,0.0,54,0.00,,,0.00,Wunderground v.1.15,2013-12-31 04:30:00,
2013-12-30 20:40:00,55.2,38.4,30.20,NW,306,0.0,0.0,53,0.00,,,0.00,Wunderground v.1.15,2013-12-31 04:40:00,
2013-12-30 20:50:00,54.4,38.1,30.20,NW,306,0.0,0.0,54,0.00,,,0.00,Wunderground v.1.15,2013-12-31 04:50:00,
2013-12-30 21:00:00,54.0,39.1,30.20,NW,306,0.0,0.0,57,0.00,,,0.00,Wunderground v.1.15,2013-12-31 05:00:00,
2013-12-30 21:10:00,53.9,41.6,30.20,NW,306,0.0,0.0,63,0.00,,,0.00,Wunderground v.1.15,2013-12-31 05:10:00,
2013-12-30 21:20:00,53.3,38.4,30.20,NW,306,0.0,0.0,57,0.00,,,0.00,Wunderground v.1.15,2013-12-31 05:20:00,
2013-12-30 21:30:00,52.5,35.4,30.20,NW,306,0.0,0.0,52,0.00,,,0.00,Wunderground v.1.15,2013-12-31 05:30:00,
2013-12-30 21:40:00,51.9,34.3,30.20,NW,306,0.0,0.0,51,0.00,,,0.00,Wunderground v.1.15,2013-12-31 05:40:00,
2013-12-30 21:50:00,51.4,33.4,30.20,NW,306,0.0,0.0,50,0.00,,,0.00,Wunderground v.1.15,2013-12-31 05:50:00,
2013-12-30 22:00:00,50.9,33.4,30.20,NW,306,0.0,0.0,51,0.00,,,0.00,Wunderground v.1.15,2013-12-31 06:00:00,
2013-12-30 22:10:00,50.4,32.9,30.20,NW,306,0.0,0.0,51,0.00,,,0.00,Wunderground v.1.15,2013-12-31 06:10:00,
2013-12-30 22:20:00,49.9,33.0,30.20,NW,306,0.0,0.0,52,0.00,,,0.00,Wunderground v.1.15,2013-12-31 06:20:00,
2013-12-30 22:30:00,49.4,33.0,30.20,NW,306,0.0,0.0,53,0.00,,,0.00,Wunderground v.1.15,2013-12-31 06:30:00,
2013-12-30 22:40:00,49.1,32.7,30.20,NW,306,0.0,0.0,53,0.00,,,0.00,Wunderground v.1.15,2013-12-31 06:40:00,
2013-12-30 22:50:00,48.7,32.8,30.19,NW,306,0.0,0.0,54,0.00,,,0.00,Wunderground v.1.15,2013-12-31 06:50:00,
2013-12-30 23:00:00,48.3,32.4,30.19,NW,306,0.0,0.0,54,0.00,,,0.00,Wunderground v.1.15,2013-12-31 07:00:00,
2013-12-30 23:10:00,48.0,32.1,30.18,NW,306,0.0,0.0,54,0.00,,,0.00,Wunderground v.1.15,2013-12-31 07:10:00,
2013-12-30 23:20:00,47.8,31.9,30.18,NW,306,0.0,0.0,54,0.00,,,0.00,Wunderground v.1.15,2013-12-31 07:20:00,
2013-12-30 23:30:00,47.7,32.3,30.18,NW,306,0.0,0.0,55,0.00,,,0.00,Wunderground v.1.15,2013-12-31 07:30:00,
2013-12-30 23:40:00,47.3,32.4,30.18,NW,306,0.0,0.0,56,0.00,,,0.00,Wunderground v.1.15,2013-12-31 07:40:00,
2013-12-30 23:50:00,47.0,31.7,30.18,NW,306,0.0,0.0,55,0.00,,,0.00,Wunderground v.1.15,2013-12-31 07:50:00,